Time;durP1;ratioP1;P1;durP2;ratioP2;P2;SDS_P1;SDS_P2;PMS_P1;PMS_P2;Temp;Humidity;BMP_temperature;BMP_pressure;BME280_temperature;BME280_humidity;BME280_pressure;Samples;Min_cycle;Max_cycle;Signal;HPM_P1;HPM_P2
2024/02/27 00:02:02;;;;;;;11.15;5.25;;;;;;;0.10;56.89;101736.38;4970661;28;20044;-67
2024/02/27 00:04:28;;;;;;;9.93;5.80;;;;;;;0.01;56.94;101738.75;4955943;28;20413;-67
2024/02/27 00:06:55;;;;;;;9.70;4.85;;;;;;;-0.09;56.48;101742.03;4973113;28;20049;-67
2024/02/27 00:09:22;;;;;;;11.45;4.72;;;;;;;-0.16;56.68;101748.75;4957164;28;20033;-67
2024/02/27 00:11:49;;;;;;;10.75;5.22;;;;;;;-0.21;56.92;101746.09;4995219;28;20136;-71
2024/02/27 00:14:16;;;;;;;7.20;4.10;;;;;;;-0.36;56.65;101746.66;4982909;28;20033;-68
2024/02/27 00:16:41;;;;;;;8.63;3.88;;;;;;;-0.43;56.51;101751.66;4975375;28;20545;-71
2024/02/27 00:19:07;;;;;;;11.82;4.85;;;;;;;-0.59;56.67;101753.06;4993166;28;20038;-77
2024/02/27 00:21:35;;;;;;;11.98;4.55;;;;;;;-0.67;56.81;101741.75;4974135;28;20082;-75
2024/02/27 00:24:00;;;;;;;10.05;5.47;;;;;;;-0.68;57.10;101738.34;4992539;28;20037;-77
2024/02/27 00:26:26;;;;;;;11.73;4.70;;;;;;;-0.69;57.18;101741.72;4992272;28;20220;-77
2024/02/27 00:28:51;;;;;;;13.90;5.57;;;;;;;-0.70;57.15;101734.00;4986444;28;20620;-77
2024/02/27 00:31:20;;;;;;;12.45;5.32;;;;;;;-0.63;57.28;101747.00;4945750;28;20056;-75
2024/02/27 00:33:45;;;;;;;10.10;4.45;;;;;;;-0.60;56.86;101744.47;4906965;28;20562;-74
2024/02/27 00:36:11;;;;;;;11.35;5.63;;;;;;;-0.70;56.71;101737.44;4921917;28;21379;-76
2024/02/27 00:38:36;;;;;;;10.32;5.43;;;;;;;-0.86;56.66;101743.06;4905234;28;20603;-73
2024/02/27 00:41:03;;;;;;;12.88;6.18;;;;;;;-0.91;56.94;101739.53;4920619;28;20511;-77
2024/02/27 00:43:29;;;;;;;8.68;5.55;;;;;;;-0.92;56.89;101737.81;4963362;28;20048;-77
2024/02/27 00:45:54;;;;;;;16.15;6.25;;;;;;;-0.93;57.23;101734.38;4977978;28;20041;-74
2024/02/27 00:48:20;;;;;;;10.95;5.22;;;;;;;-0.89;56.97;101743.00;4992071;28;20503;-77
2024/02/27 00:50:47;;;;;;;10.65;5.03;;;;;;;-0.90;57.36;101741.28;4996547;28;20053;-75
2024/02/27 00:53:16;;;;;;;9.60;5.13;;;;;;;-0.93;57.12;101747.19;4961552;28;20040;-74
2024/02/27 00:55:42;;;;;;;10.18;4.90;;;;;;;-0.94;56.92;101749.75;4977153;28;20033;-75
2024/02/27 00:58:10;;;;;;;10.02;4.88;;;;;;;-1.01;56.89;101746.19;4996238;28;20072;-71
2024/02/27 01:00:36;;;;;;;9.93;4.13;;;;;;;-1.05;56.79;101746.94;4954208;28;21618;-73
2024/02/27 01:03:01;;;;;;;8.98;5.25;;;;;;;-1.11;56.91;101746.75;4968130;28;20033;-70
2024/02/27 01:05:27;;;;;;;12.02;4.45;;;;;;;-1.20;56.65;101756.00;4980428;28;20096;-71
2024/02/27 01:07:52;;;;;;;9.95;4.55;;;;;;;-1.15;57.00;101750.09;4997771;28;20034;-70
2024/02/27 01:10:18;;;;;;;8.15;4.13;;;;;;;-1.18;56.81;101766.28;4979680;28;20037;-72
2024/02/27 01:12:44;;;;;;;10.02;4.40;;;;;;;-1.26;56.62;101762.69;4966634;28;20045;-71
2024/02/27 01:15:10;;;;;;;6.95;4.22;;;;;;;-1.28;56.90;101764.34;4987449;28;20128;-73
2024/02/27 01:17:35;;;;;;;9.13;3.92;;;;;;;-1.34;56.47;101770.19;4985561;28;20455;-71
2024/02/27 01:20:01;;;;;;;9.48;4.45;;;;;;;-1.43;56.93;101773.41;4991968;28;20041;-73
2024/02/27 01:22:31;;;;;;;10.05;4.60;;;;;;;-1.44;57.37;101771.69;4968025;28;21874;-72
2024/02/27 01:24:57;;;;;;;11.90;4.80;;;;;;;-1.35;57.47;101782.97;4954048;28;20036;-73
2024/02/27 01:27:23;;;;;;;9.73;4.07;;;;;;;-1.36;57.59;101778.69;4971388;28;20037;-72
2024/02/27 01:29:54;;;;;;;11.90;4.60;;;;;;;-1.33;57.40;101783.88;4980147;28;20048;-72
2024/02/27 01:32:20;;;;;;;11.70;5.03;;;;;;;-1.33;57.84;101783.88;4972942;28;20041;-72
2024/02/27 01:34:45;;;;;;;11.65;4.90;;;;;;;-1.23;57.91;101779.00;4951834;28;20045;-72
2024/02/27 01:37:11;;;;;;;11.80;5.35;;;;;;;-1.12;58.03;101789.53;4973530;28;20053;-72
2024/02/27 01:39:37;;;;;;;10.13;4.63;;;;;;;-0.94;58.40;101790.81;4990628;28;20120;-72
2024/02/27 01:42:03;;;;;;;12.60;5.32;;;;;;;-0.82;58.12;101786.78;4972822;28;20037;-73
2024/02/27 01:44:28;;;;;;;11.80;5.30;;;;;;;-0.77;58.04;101800.63;4980061;28;20067;-72
2024/02/27 01:46:56;;;;;;;11.43;5.30;;;;;;;-0.72;57.92;101797.28;4954055;28;20148;-72
2024/02/27 01:49:22;;;;;;;12.18;5.72;;;;;;;-0.68;57.75;101794.81;4985166;28;20029;-72
2024/02/27 01:51:48;;;;;;;10.27;4.10;;;;;;;-0.63;57.75;101800.91;4976324;28;20053;-73
2024/02/27 01:54:19;;;;;;;11.25;5.28;;;;;;;-0.58;57.51;101798.44;4990353;28;20091;-73
2024/02/27 01:56:46;;;;;;;9.40;5.25;;;;;;;-0.61;57.81;101801.81;4966937;28;20368;-73
2024/02/27 01:59:12;;;;;;;11.48;4.15;;;;;;;-0.54;57.79;101796.81;4965326;28;20072;-72
2024/02/27 02:01:39;;;;;;;8.95;4.50;;;;;;;-0.42;58.16;101792.78;4961183;28;20052;-72
2024/02/27 02:04:08;;;;;;;8.25;4.40;;;;;;;-0.35;58.10;101793.75;4947337;28;20479;-73
2024/02/27 02:06:35;;;;;;;10.98;5.40;;;;;;;-0.20;58.41;101788.94;4968801;28;20537;-73
2024/02/27 02:09:01;;;;;;;9.10;5.30;;;;;;;-0.04;57.93;101784.09;4955669;28;20221;-73
2024/02/27 02:11:27;;;;;;;8.75;4.38;;;;;;;0.04;57.90;101791.09;4974465;28;20063;-70
2024/02/27 02:13:54;;;;;;;12.77;7.03;;;;;;;0.15;57.47;101786.16;4975674;28;20052;-70
2024/02/27 02:16:20;;;;;;;8.32;4.47;;;;;;;0.12;57.11;101786.09;4992422;28;20176;-69
2024/02/27 02:18:47;;;;;;;9.60;4.68;;;;;;;0.05;57.52;101785.16;4969484;28;20143;-69
2024/02/27 02:21:13;;;;;;;11.02;5.22;;;;;;;-0.00;57.25;101785.88;4968501;28;20045;-69
2024/02/27 02:23:39;;;;;;;8.48;4.53;;;;;;;-0.06;57.39;101785.75;4972864;28;20036;-73
2024/02/27 02:26:05;;;;;;;10.65;5.53;;;;;;;-0.08;57.90;101782.28;4990906;28;20041;-68
2024/02/27 02:28:30;;;;;;;10.00;5.00;;;;;;;-0.12;57.99;101773.69;4989640;28;20040;-69
2024/02/27 02:30:56;;;;;;;11.23;5.50;;;;;;;-0.07;57.81;101784.03;4993576;28;20045;-68
2024/02/27 02:33:22;;;;;;;14.73;4.93;;;;;;;-0.05;57.38;101785.81;4993376;28;20053;-69
2024/02/27 02:35:47;;;;;;;10.32;4.47;;;;;;;-0.18;57.17;101787.25;4986131;28;21199;-69
2024/02/27 02:38:13;;;;;;;9.13;4.70;;;;;;;-0.28;57.27;101779.34;4991089;28;20522;-69
2024/02/27 02:40:38;;;;;;;7.45;4.45;;;;;;;-0.41;57.56;101783.41;4984857;28;20556;-69
2024/02/27 02:43:04;;;;;;;9.43;5.07;;;;;;;-0.43;57.60;101783.34;4974229;28;20054;-69
2024/02/27 02:45:29;;;;;;;8.68;3.70;;;;;;;-0.39;57.77;101794.56;4974190;28;20091;-71
2024/02/27 02:47:57;;;;;;;13.13;5.90;;;;;;;-0.35;57.64;101789.53;4989784;28;20032;-69
2024/02/27 02:50:23;;;;;;;11.02;4.88;;;;;;;-0.36;57.83;101786.91;4990048;28;20056;-70
2024/02/27 02:52:48;;;;;;;8.40;4.45;;;;;;;-0.27;58.16;101791.38;4981205;28;20140;-70
2024/02/27 02:55:14;;;;;;;8.95;4.38;;;;;;;-0.19;57.82;101794.94;4990283;28;20713;-70
2024/02/27 02:57:39;;;;;;;10.30;4.50;;;;;;;-0.14;57.56;101796.78;4966580;28;20037;-70
2024/02/27 03:00:05;;;;;;;11.48;5.22;;;;;;;-0.15;57.42;101797.63;4977848;28;20410;-75
2024/02/27 03:02:31;;;;;;;9.07;4.95;;;;;;;-0.14;57.57;101793.34;4939034;28;20060;-75
2024/02/27 03:04:58;;;;;;;8.30;4.63;;;;;;;-0.16;57.83;101798.44;4970334;28;20568;-75
2024/02/27 03:07:24;;;;;;;9.25;4.20;;;;;;;-0.09;58.11;101802.00;4967755;28;20136;-75
2024/02/27 03:09:50;;;;;;;8.02;4.78;;;;;;;0.02;58.11;101804.78;4924333;28;20135;-75
2024/02/27 03:12:17;;;;;;;8.40;4.78;;;;;;;0.12;58.04;101808.38;4928335;28;20139;-74
2024/02/27 03:14:45;;;;;;;9.13;4.72;;;;;;;0.20;58.39;101807.69;4944766;28;20064;-74
2024/02/27 03:17:17;;;;;;;11.10;3.92;;;;;;;0.35;57.97;101813.94;4923227;28;20595;-74
2024/02/27 03:19:43;;;;;;;;;;;;;;;0.35;58.02;101813.94;4929016;28;20061;-75
2024/02/27 03:22:09;;;;;;;6.55;3.72;;;;;;;0.42;58.14;101813.22;4991111;28;20068;-75
2024/02/27 03:24:36;;;;;;;11.45;5.35;;;;;;;0.45;57.80;101816.69;4990471;28;20112;-76
2024/02/27 03:27:02;;;;;;;9.10;4.32;;;;;;;0.52;58.03;101815.06;4973139;28;20048;-73
2024/02/27 03:29:28;;;;;;;8.02;4.60;;;;;;;0.57;57.77;101799.72;4990723;28;20068;-73
2024/02/27 03:31:57;;;;;;;10.52;4.95;;;;;;;0.56;57.67;101811.72;4995143;28;20135;-73
2024/02/27 03:34:25;;;;;;;12.60;5.35;;;;;;;0.54;57.40;101810.81;4995937;28;20052;-70
2024/02/27 03:36:50;;;;;;;8.90;5.00;;;;;;;0.51;57.88;101808.22;4975678;28;20045;-67
2024/02/27 03:39:16;;;;;;;10.77;5.50;;;;;;;0.60;57.96;101807.50;4950080;28;20052;-68
2024/02/27 03:41:43;;;;;;;12.77;5.13;;;;;;;0.71;57.81;101813.69;4985163;28;20037;-70
2024/02/27 03:44:09;;;;;;;13.05;6.32;;;;;;;0.75;57.54;101812.91;4976809;28;20108;-69
2024/02/27 03:46:35;;;;;;;12.13;6.38;;;;;;;0.84;57.93;101814.75;4995696;28;20655;-69
2024/02/27 03:49:00;;;;;;;12.82;5.95;;;;;;;0.95;57.58;101812.31;4985261;28;20158;-69
2024/02/27 03:51:26;;;;;;;10.80;6.32;;;;;;;0.96;57.81;101820.06;4956171;28;20056;-68
2024/02/27 03:53:53;;;;;;;12.35;5.55;;;;;;;1.00;57.86;101818.44;4991941;28;20029;-69
2024/02/27 03:56:19;;;;;;;13.27;6.38;;;;;;;1.05;57.82;101821.94;4992525;28;20048;-68
2024/02/27 03:58:47;;;;;;;14.60;6.22;;;;;;;1.10;57.84;101823.75;4993356;28;20384;-70
2024/02/27 04:01:17;;;;;;;11.70;6.20;;;;;;;1.11;57.51;101817.72;4980816;28;20073;-69
2024/02/27 04:03:43;;;;;;;15.50;6.57;;;;;;;1.14;57.81;101813.47;4963567;28;20040;-70
2024/02/27 04:06:08;;;;;;;14.13;6.40;;;;;;;1.18;57.48;101826.41;4991978;28;20613;-70
2024/02/27 04:08:33;;;;;;;15.13;7.40;;;;;;;1.28;57.76;101820.56;4998228;28;20033;-70
2024/02/27 04:10:59;;;;;;;12.45;6.95;;;;;;;1.36;57.24;101823.22;4971220;28;20075;-70
2024/02/27 04:13:25;;;;;;;14.00;6.32;;;;;;;1.32;57.22;101822.31;4967290;28;20092;-70
2024/02/27 04:15:50;;;;;;;13.70;6.97;;;;;;;1.35;57.40;101829.22;4973237;28;20049;-70
2024/02/27 04:18:16;;;;;;;13.40;6.88;;;;;;;1.31;57.43;101830.03;4995159;28;20507;-69
2024/02/27 04:20:43;;;;;;;17.77;7.20;;;;;;;1.42;57.40;101833.66;4990901;28;20108;-70
2024/02/27 04:23:09;;;;;;;11.95;6.80;;;;;;;1.44;57.40;101834.53;4984677;28;20045;-70
2024/02/27 04:25:35;;;;;;;14.32;7.00;;;;;;;1.42;57.23;101835.38;4943420;28;20076;-69
2024/02/27 04:28:03;;;;;;;14.27;6.85;;;;;;;1.43;57.43;101829.34;4973828;28;20040;-71
2024/02/27 04:30:28;;;;;;;12.20;6.47;;;;;;;1.46;57.34;101837.13;4978288;28;20348;-71
2024/02/27 04:32:53;;;;;;;13.52;7.15;;;;;;;1.43;57.17;101837.94;4988163;28;20092;-70
2024/02/27 04:35:19;;;;;;;12.65;7.05;;;;;;;1.36;57.77;101845.56;4971925;28;20156;-70
2024/02/27 04:37:44;;;;;;;15.15;7.43;;;;;;;1.48;57.49;101845.72;4965145;28;20188;-70
2024/02/27 04:40:10;;;;;;;15.90;7.15;;;;;;;1.42;57.60;101846.53;4978106;28;20096;-71
2024/02/27 04:42:36;;;;;;;13.80;6.90;;;;;;;1.47;57.40;101850.03;4992447;28;20045;-70
2024/02/27 04:45:01;;;;;;;17.13;7.38;;;;;;;1.48;57.45;101848.31;4985482;28;20069;-70
2024/02/27 04:47:27;;;;;;;14.40;7.68;;;;;;;1.55;57.45;101857.00;4971115;28;20050;-70
2024/02/27 04:49:52;;;;;;;14.45;7.82;;;;;;;1.52;57.18;101853.53;4974646;28;21568;-71
2024/02/27 04:52:17;;;;;;;16.85;7.35;;;;;;;1.44;57.71;101856.84;4980965;28;20141;-70
2024/02/27 04:54:44;;;;;;;15.63;8.35;;;;;;;1.47;57.68;101862.06;4976071;28;20034;-71
2024/02/27 04:57:09;;;;;;;15.77;7.68;;;;;;;1.46;57.79;101857.72;4970675;28;20148;-71
2024/02/27 04:59:36;;;;;;;14.98;7.30;;;;;;;1.51;57.48;101862.13;4968594;28;20037;-69
2024/02/27 05:02:03;;;;;;;16.30;8.32;;;;;;;1.41;58.03;101869.69;4985101;28;20083;-71
2024/02/27 05:04:29;;;;;;;20.13;8.40;;;;;;;1.41;58.21;101877.41;4991944;28;20728;-70
2024/02/27 05:06:55;;;;;;;18.40;8.63;;;;;;;1.41;58.14;101870.53;4955692;28;20463;-70
2024/02/27 05:09:20;;;;;;;20.90;8.63;;;;;;;1.41;58.47;101869.69;4974769;28;20638;-71
2024/02/27 05:11:46;;;;;;;18.70;10.18;;;;;;;1.41;58.20;101874.84;4949693;28;20045;-71
2024/02/27 05:14:11;;;;;;;17.58;9.40;;;;;;;1.36;58.06;101873.88;4988361;28;20025;-71
2024/02/27 05:16:37;;;;;;;19.35;8.95;;;;;;;1.37;58.04;101884.19;4993893;28;20451;-71
2024/02/27 05:19:03;;;;;;;19.98;9.88;;;;;;;1.20;58.89;101877.94;4990370;28;20777;-69
2024/02/27 05:21:28;;;;;;;24.05;10.55;;;;;;;1.30;58.67;101875.53;4965039;28;20053;-69
2024/02/27 05:23:54;;;;;;;19.75;9.93;;;;;;;1.22;59.04;101876.25;4958356;28;20057;-69
2024/02/27 05:26:19;;;;;;;21.73;11.57;;;;;;;1.21;59.19;101877.94;4988334;28;20052;-68
2024/02/27 05:28:47;;;;;;;22.08;11.55;;;;;;;1.17;59.07;101876.19;4973170;28;20089;-72
2024/02/27 05:31:24;;;;;;;21.00;11.07;;;;;;;1.24;59.16;101877.16;4974652;28;20041;-72
2024/02/27 05:33:51;;;;;;;22.50;10.82;;;;;;;1.21;59.29;101890.81;4990011;28;20041;-72
2024/02/27 05:36:16;;;;;;;18.38;9.80;;;;;;;1.04;59.51;101888.00;4991950;28;20112;-73
2024/02/27 05:38:43;;;;;;;24.63;11.27;;;;;;;1.26;58.66;101893.47;4976225;28;20033;-70
2024/02/27 05:41:11;;;;;;;26.23;10.63;;;;;;;1.25;58.83;101889.19;4976279;28;20046;-73
2024/02/27 05:43:37;;;;;;;23.50;11.07;;;;;;;1.26;58.61;101888.31;4974860;28;20096;-73
2024/02/27 05:46:05;;;;;;;16.83;9.02;;;;;;;1.11;59.03;101882.09;4986924;28;20045;-72
2024/02/27 05:48:34;;;;;;;22.17;11.23;;;;;;;1.19;58.49;101879.63;4975357;28;20033;-71
2024/02/27 05:50:59;;;;;;;26.50;11.27;;;;;;;1.16;58.99;101889.03;4983914;28;20045;-71
2024/02/27 05:53:25;;;;;;;22.95;11.45;;;;;;;1.25;58.57;101886.59;4993623;28;20083;-72
2024/02/27 05:55:51;;;;;;;21.27;11.73;;;;;;;1.36;57.81;101894.50;4987449;28;20045;-72
2024/02/27 05:58:17;;;;;;;27.20;11.77;;;;;;;1.13;58.79;101891.53;4979885;28;20459;-72
2024/02/27 06:00:42;;;;;;;25.95;11.77;;;;;;;1.22;58.26;101902.88;4960852;28;20025;-70
2024/02/27 06:03:11;;;;;;;25.48;12.68;;;;;;;1.17;58.58;101907.09;4952461;28;20174;-69
2024/02/27 06:05:36;;;;;;;22.88;11.00;;;;;;;1.14;58.34;101904.47;4965513;28;20340;-71
2024/02/27 06:08:02;;;;;;;26.13;11.57;;;;;;;1.10;58.89;101911.28;4957821;28;20033;-71
2024/02/27 06:10:27;;;;;;;32.67;13.15;;;;;;;1.23;58.14;101917.47;4949633;28;20025;-70
2024/02/27 06:12:53;;;;;;;30.00;12.25;;;;;;;1.27;58.33;101913.25;4912350;28;20203;-69
2024/02/27 06:15:19;;;;;;;25.92;11.75;;;;;;;1.09;58.75;101925.00;4932472;28;20676;-71
2024/02/27 06:17:44;;;;;;;22.52;11.43;;;;;;;1.18;58.48;101920.84;4911575;28;20053;-68
2024/02/27 06:22:10;;;;;;;28.25;12.63;;;;;;;1.02;58.58;101923.16;4931776;28;20116;-70
2024/02/27 06:22:59;;;;;;;25.45;11.50;;;;;;;0.95;58.98;101918.75;4965300;28;20076;-69
2024/02/27 06:25:25;;;;;;;21.95;11.27;;;;;;;1.17;57.97;101922.56;4988098;28;20037;-68
2024/02/27 06:27:50;;;;;;;21.15;10.35;;;;;;;1.06;59.04;101930.09;4986032;28;20048;-69
2024/02/27 06:30:16;;;;;;;23.10;10.05;;;;;;;0.95;58.57;101926.47;4972650;28;20033;-68
2024/02/27 06:32:42;;;;;;;22.83;10.90;;;;;;;1.08;58.73;101928.41;4983134;28;20436;-68
2024/02/27 06:35:09;;;;;;;23.83;11.35;;;;;;;1.21;57.83;101923.44;4981954;28;20191;-65
2024/02/27 06:37:35;;;;;;;26.63;11.75;;;;;;;1.11;57.90;101920.72;4984196;28;20028;-66
2024/02/27 06:40:02;;;;;;;22.35;10.07;;;;;;;0.91;58.35;101929.84;4981592;28;20061;-67
2024/02/27 06:42:33;;;;;;;17.83;9.95;;;;;;;0.89;58.17;101927.22;4966941;28;20045;-65
2024/02/27 06:44:58;;;;;;;26.02;10.75;;;;;;;0.83;58.73;101927.13;4963441;28;20495;-66
2024/02/27 06:47:24;;;;;;;26.30;10.77;;;;;;;0.88;58.75;101922.94;4984260;28;20087;-66
2024/02/27 06:49:50;;;;;;;23.75;11.13;;;;;;;1.03;58.45;101926.59;4986572;28;20039;-66
2024/02/27 06:52:16;;;;;;;25.77;11.15;;;;;;;1.13;58.14;101931.06;4982836;28;20069;-69
2024/02/27 06:54:44;;;;;;;25.80;10.82;;;;;;;1.07;58.20;101926.66;4985663;28;20148;-68
2024/02/27 06:57:10;;;;;;;25.02;11.35;;;;;;;1.25;58.21;101922.66;4978661;28;20392;-66
2024/02/27 06:59:36;;;;;;;25.30;11.20;;;;;;;1.18;58.27;101921.69;4986777;28;20340;-67
2024/02/27 07:02:02;;;;;;;20.98;9.80;;;;;;;1.05;58.58;101918.03;4980071;28;20444;-67
2024/02/27 07:04:27;;;;;;;29.27;9.80;;;;;;;0.97;58.75;101921.34;4991087;28;20040;-67
2024/02/27 07:06:53;;;;;;;24.15;10.18;;;;;;;1.06;58.50;101917.22;4985609;28;20049;-68
2024/02/27 07:09:19;;;;;;;22.45;9.45;;;;;;;1.06;59.01;101919.78;4996916;28;20128;-66
2024/02/27 07:11:44;;;;;;;24.83;9.65;;;;;;;1.07;58.87;101915.50;4973556;28;20067;-66
2024/02/27 07:14:12;;;;;;;28.90;10.80;;;;;;;1.28;58.50;101920.13;4987771;28;20788;-67
2024/02/27 07:16:38;;;;;;;24.67;9.55;;;;;;;1.17;58.60;101922.56;4987783;28;20081;-68
2024/02/27 07:19:04;;;;;;;27.75;11.10;;;;;;;1.25;58.64;101920.09;4988122;28;20120;-67
2024/02/27 07:21:30;;;;;;;31.92;11.45;;;;;;;0.89;59.44;101928.94;4990270;28;20526;-68
2024/02/27 07:23:55;;;;;;;29.75;11.68;;;;;;;1.29;58.35;101927.88;4968925;28;20037;-69
2024/02/27 07:26:21;;;;;;;32.83;11.77;;;;;;;1.29;58.57;101927.03;4977955;28;20045;-68
2024/02/27 07:28:47;;;;;;;23.15;10.05;;;;;;;1.20;58.54;101932.03;4972491;28;20065;-67
2024/02/27 07:31:16;;;;;;;29.50;11.73;;;;;;;1.26;58.90;101927.84;4986158;28;20373;-69
2024/02/27 07:33:42;;;;;;;42.53;12.90;;;;;;;1.22;58.95;101935.50;4982905;28;20053;-68
2024/02/27 07:36:08;;;;;;;39.03;10.98;;;;;;;1.20;59.08;101929.44;4968241;28;20041;-68
2024/02/27 07:38:33;;;;;;;35.85;11.15;;;;;;;1.35;58.78;101937.44;4986857;28;20739;-70
2024/02/27 07:40:59;;;;;;;37.88;11.77;;;;;;;1.48;58.68;101939.38;4990356;28;20057;-70
2024/02/27 07:43:24;;;;;;;33.03;10.30;;;;;;;1.55;58.75;101939.44;4993552;28;20097;-69
2024/02/27 07:45:51;;;;;;;44.80;13.48;;;;;;;1.53;58.56;101942.03;4973431;28;20041;-70
2024/02/27 07:48:21;;;;;;;31.02;12.68;;;;;;;1.25;58.89;101944.13;4940245;28;20052;-69
2024/02/27 07:50:47;;;;;;;30.40;12.18;;;;;;;1.39;58.73;101952.06;4971296;28;20041;-68
2024/02/27 07:53:13;;;;;;;22.17;8.75;;;;;;;1.36;58.50;101958.88;4974564;28;20332;-67
2024/02/27 07:55:41;;;;;;;23.20;10.02;;;;;;;1.35;58.38;101958.03;4962795;28;20260;-68
2024/02/27 07:58:09;;;;;;;30.17;10.63;;;;;;;1.38;58.87;101958.06;4954816;28;20044;-68
2024/02/27 08:00:35;;;;;;;31.73;11.45;;;;;;;1.52;58.61;101960.88;4991870;28;20037;-68
2024/02/27 08:03:01;;;;;;;30.33;12.75;;;;;;;1.45;58.31;101965.06;4992889;28;20709;-69
2024/02/27 08:05:28;;;;;;;28.98;12.38;;;;;;;1.36;58.75;101964.91;4976757;28;20671;-68
2024/02/27 08:07:54;;;;;;;34.70;13.48;;;;;;;1.54;58.33;101966.06;4963753;28;20037;-70
2024/02/27 08:10:20;;;;;;;34.22;11.68;;;;;;;1.49;58.35;101964.28;4972264;28;20087;-73
2024/02/27 08:12:47;;;;;;;29.05;11.65;;;;;;;1.41;58.76;101965.88;4987341;28;20800;-70
2024/02/27 08:15:15;;;;;;;28.83;11.73;;;;;;;1.53;58.42;101962.63;4989989;28;20042;-69
2024/02/27 08:17:42;;;;;;;35.08;11.50;;;;;;;1.43;58.47;101966.75;4988731;28;20034;-69
2024/02/27 08:20:08;;;;;;;30.65;11.68;;;;;;;1.47;58.54;101972.84;4968707;28;20128;-70
2024/02/27 08:22:35;;;;;;;25.45;12.57;;;;;;;1.31;58.12;101982.88;4965446;28;20053;-69
2024/02/27 08:25:01;;;;;;;28.45;11.57;;;;;;;1.45;58.33;101985.69;4971418;28;20564;-70
2024/02/27 08:27:27;;;;;;;31.80;11.18;;;;;;;1.19;58.72;101986.94;4989711;28;20478;-67
2024/02/27 08:29:52;;;;;;;26.80;12.02;;;;;;;1.38;58.07;101996.72;4952326;28;20033;-69
2024/02/27 08:32:19;;;;;;;30.67;13.15;;;;;;;1.37;58.25;102007.84;4966705;28;20422;-69
2024/02/27 08:34:45;;;;;;;29.92;13.95;;;;;;;1.54;58.29;102002.16;4975030;28;20077;-68
2024/02/27 08:37:11;;;;;;;27.55;12.77;;;;;;;1.67;58.19;102011.81;4985084;28;20128;-69
2024/02/27 08:39:36;;;;;;;30.42;13.32;;;;;;;1.65;57.88;102018.63;4987652;28;21275;-68
2024/02/27 08:42:02;;;;;;;24.77;12.00;;;;;;;1.61;57.73;102014.28;4943854;28;20045;-69
2024/02/27 08:44:28;;;;;;;27.75;10.88;;;;;;;1.57;57.67;102015.94;4965530;28;20041;-69
2024/02/27 08:46:54;;;;;;;30.75;12.32;;;;;;;1.69;57.91;102016.13;4998081;28;20048;-69
2024/02/27 08:49:19;;;;;;;31.42;12.88;;;;;;;1.63;57.75;102010.00;4990125;28;20044;-69
2024/02/27 08:51:45;;;;;;;31.58;14.30;;;;;;;1.60;58.10;102005.69;4960541;28;20518;-69
2024/02/27 08:54:10;;;;;;;29.27;12.80;;;;;;;1.52;57.76;102008.13;4928217;28;20041;-69
2024/02/27 08:56:39;;;;;;;25.08;12.38;;;;;;;1.59;58.09;102005.66;4963093;28;20168;-69
2024/02/27 08:59:08;;;;;;;26.35;11.27;;;;;;;1.55;57.93;102011.59;4971824;28;20034;-69
2024/02/27 09:01:33;;;;;;;33.80;14.20;;;;;;;1.58;57.48;102002.22;4970651;28;20061;-69
2024/02/27 09:04:01;;;;;;;33.40;14.20;;;;;;;1.62;58.07;102008.28;4948378;28;20041;-71
2024/02/27 09:06:31;;;;;;;26.00;12.38;;;;;;;1.68;57.42;102008.38;4958882;28;20037;-70
2024/02/27 09:08:57;;;;;;;31.52;13.98;;;;;;;1.60;57.92;102015.13;4968394;28;20044;-69
2024/02/27 09:11:23;;;;;;;25.02;12.10;;;;;;;1.55;57.43;102002.19;4982205;28;20038;-68
2024/02/27 09:13:48;;;;;;;23.20;11.57;;;;;;;1.67;57.40;102009.22;4988353;28;20037;-70
2024/02/27 09:16:14;;;;;;;31.48;12.60;;;;;;;1.80;57.43;102013.72;4962347;28;20049;-70
2024/02/27 09:18:40;;;;;;;25.30;11.07;;;;;;;1.82;57.23;102019.78;4963980;28;20029;-72
2024/02/27 09:21:06;;;;;;;24.13;11.05;;;;;;;1.71;56.90;102019.59;4961696;28;20041;-70
2024/02/27 09:23:32;;;;;;;26.13;11.60;;;;;;;1.62;57.08;102016.03;4987017;28;20080;-69
2024/02/27 09:25:57;;;;;;;30.00;13.30;;;;;;;1.70;57.22;102011.84;4980440;28;20160;-70
2024/02/27 09:28:23;;;;;;;29.73;13.68;;;;;;;1.80;57.25;102016.31;4984320;28;20780;-70
2024/02/27 09:30:48;;;;;;;29.58;13.50;;;;;;;1.85;57.20;102012.06;4987141;28;20100;-70
2024/02/27 09:33:14;;;;;;;24.45;11.90;;;;;;;1.86;57.01;102011.25;4979980;28;20037;-70
2024/02/27 09:35:41;;;;;;;31.42;13.55;;;;;;;1.83;57.05;102002.59;4971960;28;20877;-68
2024/02/27 09:38:07;;;;;;;31.60;13.63;;;;;;;1.71;57.01;102014.44;4970432;28;20582;-70
2024/02/27 09:40:32;;;;;;;28.35;12.95;;;;;;;1.79;57.35;102005.97;4959047;28;20040;-69
2024/02/27 09:43:01;;;;;;;29.48;12.98;;;;;;;1.78;57.45;102007.66;4980151;28;20048;-69
2024/02/27 09:45:26;;;;;;;27.75;12.32;;;;;;;1.76;56.96;102011.06;4975199;28;20721;-69
2024/02/27 09:47:53;;;;;;;28.75;12.93;;;;;;;1.65;57.08;102008.31;4967139;28;20041;-69
2024/02/27 09:50:20;;;;;;;27.23;11.70;;;;;;;1.52;57.26;102007.25;4962825;28;20171;-69
2024/02/27 09:52:50;;;;;;;27.27;12.98;;;;;;;1.69;56.96;102000.66;4940648;28;20045;-69
2024/02/27 09:55:20;;;;;;;27.23;13.38;;;;;;;1.76;56.97;102001.63;4952953;28;20113;-69
2024/02/27 09:57:49;;;;;;;29.02;12.85;;;;;;;1.88;56.95;102001.78;4951503;28;20373;-69
2024/02/27 10:00:19;;;;;;;23.63;10.68;;;;;;;1.76;56.80;101991.31;4948561;28;20036;-70
2024/02/27 10:02:49;;;;;;;33.20;13.85;;;;;;;1.82;56.82;101990.53;4938676;28;20060;-69
2024/02/27 10:05:18;;;;;;;32.08;12.13;;;;;;;1.96;55.93;101990.75;4985630;28;20037;-69
2024/02/27 10:07:53;;;;;;;28.50;12.05;;;;;;;2.00;56.35;101979.59;4990343;28;20064;-68
2024/02/27 10:10:19;;;;;;;28.58;12.50;;;;;;;2.16;56.42;101981.53;4968058;28;20037;-69
2024/02/27 10:12:45;;;;;;;26.60;13.10;;;;;;;2.22;55.53;101981.63;4972794;28;20077;-69
2024/02/27 10:15:10;;;;;;;33.55;14.13;;;;;;;2.20;55.77;101979.84;4985665;28;20037;-69
2024/02/27 10:17:39;;;;;;;27.63;12.27;;;;;;;2.03;55.73;101980.50;4982414;28;20075;-69
2024/02/27 10:20:10;;;;;;;29.73;13.60;;;;;;;2.02;55.53;101983.06;4959301;28;20033;-69
2024/02/27 10:22:39;;;;;;;30.92;14.38;;;;;;;1.92;56.08;101982.94;4938652;28;20049;-69
2024/02/27 10:25:14;;;;;;;26.90;12.68;;;;;;;1.86;55.63;101977.72;4992538;28;20025;-69
2024/02/27 10:27:43;;;;;;;24.40;10.80;;;;;;;1.83;55.75;101972.50;4985776;28;20483;-69
2024/02/27 10:30:09;;;;;;;30.15;12.35;;;;;;;2.01;55.72;101976.19;4989061;28;20075;-69
2024/02/27 10:32:35;;;;;;;29.13;13.00;;;;;;;2.02;55.31;101983.06;4957306;28;20034;-70
2024/02/27 10:35:04;;;;;;;24.98;11.27;;;;;;;1.90;55.38;101982.06;4993179;28;20112;-68
2024/02/27 10:37:31;;;;;;;30.50;12.95;;;;;;;1.91;55.57;101978.66;4984372;28;20048;-69
2024/02/27 10:39:59;;;;;;;22.33;9.77;;;;;;;1.88;55.79;101981.16;4972832;28;20029;-68
2024/02/27 10:42:29;;;;;;;28.00;11.13;;;;;;;1.88;56.19;101978.59;4967344;28;20060;-68
2024/02/27 10:44:57;;;;;;;24.77;10.75;;;;;;;1.80;56.53;101980.22;4963133;28;20180;-68
2024/02/27 10:47:26;;;;;;;26.67;10.95;;;;;;;1.87;55.85;101973.44;4981059;28;20045;-68
2024/02/27 10:49:54;;;;;;;23.85;10.57;;;;;;;2.00;55.61;101980.47;4987573;28;20030;-68
2024/02/27 10:52:24;;;;;;;22.63;9.15;;;;;;;2.28;55.83;101979.09;4980901;28;20048;-68
2024/02/27 10:54:50;;;;;;;26.05;9.95;;;;;;;2.15;55.33;101987.53;4986476;28;20129;-70
2024/02/27 10:57:17;;;;;;;22.58;10.68;;;;;;;2.10;55.44;101997.78;4983053;28;20060;-69
2024/02/27 10:59:44;;;;;;;22.98;11.40;;;;;;;2.00;54.92;101989.91;4990083;28;20065;-69
2024/02/27 11:02:19;;;;;;;20.40;9.82;;;;;;;1.87;55.55;101999.22;4968193;28;20111;-68
2024/02/27 11:04:46;;;;;;;25.40;10.50;;;;;;;1.99;55.38;101998.50;4970987;28;20037;-68
2024/02/27 11:07:16;;;;;;;24.63;10.05;;;;;;;2.06;55.02;101995.16;4988539;28;20072;-68
2024/02/27 11:09:44;;;;;;;24.52;10.75;;;;;;;2.03;54.88;101995.13;4939211;28;20088;-68
2024/02/27 11:12:12;;;;;;;23.75;10.80;;;;;;;2.06;54.72;101990.84;4925805;28;20128;-68
2024/02/27 11:14:42;;;;;;;23.92;10.45;;;;;;;2.31;54.65;101989.47;4937291;28;20554;-68
2024/02/27 11:17:28;;;;;;;23.65;9.48;;;;;;;2.30;54.40;101990.31;4914137;28;20481;-68
2024/02/27 11:19:55;;;;;;;21.35;9.52;;;;;;;2.34;54.86;101993.81;4944246;28;20034;-68